Norfolk, Virginia
Traffic Map
Current Weather Conditions
Norfolk, Virginia
Clear
Clear
84°
Feels Like: 88°
Wind Chill: 84° Ceiling: Unl
Heat Index: 88° Visibility: 10mi
Dew Point: 69° Wind: 7mph
Humidity: 61% Direction: 220° (SW)
Pressure: 29.9in Gusts: 0mph
Raw Report DataKORF 011351Z AUTO 22006KT 10SM CLR 29/21 A2990 RMK AO2 SLP126 T02890206 TSNO
Traffic Incident Summary
Active as of:
Severity:
Category:
InformationThere was an issue retrieving the traffic information for this location. Please try a different location or try again shortly.
Advertisements
Track Severe Weather on mobile